Time;durP1;ratioP1;P1;durP2;ratioP2;P2;SDS_P1;SDS_P2;PMS_P1;PMS_P2;Temp;Humidity;BMP_temperature;BMP_pressure;BME280_temperature;BME280_humidity;BME280_pressure;Samples;Min_cycle;Max_cycle;Signal;HPM_P1;HPM_P2
2021/07/11 00:02:13;;;;;;;6.53;3.15;;;24.50;99.90;;;;;;5019612;28;20209;-77
2021/07/11 00:04:39;;;;;;;5.03;3.30;;;24.50;99.90;;;;;;5019408;28;20192;-77
2021/07/11 00:07:05;;;;;;;3.42;2.95;;;24.50;99.90;;;;;;5019818;28;20279;-77
2021/07/11 00:09:32;;;;;;;3.58;2.92;;;24.50;99.90;;;;;;5022362;28;20606;-77
2021/07/11 00:11:58;;;;;;;3.63;2.90;;;24.50;99.90;;;;;;5008191;28;20235;-76
2021/07/11 00:14:24;;;;;;;9.10;3.33;;;24.50;99.90;;;;;;5033492;28;20233;-77
2021/07/11 00:16:51;;;;;;;3.53;2.93;;;24.50;99.90;;;;;;5018545;28;20191;-77
2021/07/11 00:19:17;;;;;;;4.75;2.80;;;24.50;99.90;;;;;;5020080;28;20622;-76
2021/07/11 00:21:43;;;;;;;4.10;2.70;;;24.40;99.90;;;;;;5013622;28;20184;-76
2021/07/11 00:24:10;;;;;;;4.30;2.63;;;24.40;99.90;;;;;;5017332;28;20226;-76
2021/07/11 00:26:36;;;;;;;5.00;2.50;;;24.40;99.90;;;;;;5023093;28;20204;-77
2021/07/11 00:29:02;;;;;;;8.43;2.60;;;24.30;99.90;;;;;;5040809;28;20192;-77
2021/07/11 00:31:29;;;;;;;3.10;2.45;;;24.30;99.80;;;;;;5038024;28;20354;-76
2021/07/11 00:33:55;;;;;;;4.90;2.70;;;24.30;99.70;;;;;;5037905;28;20220;-77
2021/07/11 00:36:22;;;;;;;2.90;2.60;;;24.30;99.60;;;;;;5021355;28;20641;-77
2021/07/11 00:38:49;;;;;;;3.83;2.13;;;24.30;99.90;;;;;;5039106;28;20665;-77
2021/07/11 00:41:15;;;;;;;5.40;2.88;;;24.30;99.80;;;;;;5010101;28;20956;-77
2021/07/11 00:43:43;;;;;;;4.18;2.75;;;24.30;99.90;;;;;;5040359;28;20208;-77
2021/07/11 00:46:10;;;;;;;5.07;2.80;;;24.30;99.60;;;;;;5039031;28;20255;-77
2021/07/11 00:48:36;;;;;;;4.28;2.40;;;24.30;99.80;;;;;;5020438;28;20192;-76
2021/07/11 00:51:06;;;;;;;5.67;2.47;;;24.40;99.50;;;;;;5022230;28;20315;-77
2021/07/11 00:53:33;;;;;;;2.67;2.47;;;24.50;99.40;;;;;;5017257;28;20200;-78
2021/07/11 00:55:59;;;;;;;4.28;2.35;;;24.40;99.40;;;;;;5036933;28;20561;-77
2021/07/11 00:58:25;;;;;;;2.85;2.20;;;24.50;99.80;;;;;;5025428;28;20191;-77
2021/07/11 01:00:57;;;;;;;7.25;3.10;;;24.50;99.30;;;;;;5020748;28;20653;-76
2021/07/11 01:03:35;;;;;;;2.58;2.30;;;24.50;99.10;;;;;;5032767;28;20245;-76
2021/07/11 01:06:03;;;;;;;4.47;2.60;;;24.50;99.30;;;;;;5019999;28;20229;-76
2021/07/11 01:08:39;;;;;;;3.07;2.53;;;24.50;99.40;;;;;;5035976;28;20192;-76
2021/07/11 01:11:11;;;;;;;8.32;2.88;;;24.50;98.90;;;;;;5025191;28;20220;-77
2021/07/11 01:13:41;;;;;;;3.10;2.30;;;24.50;99.20;;;;;;5020958;28;20218;-76
2021/07/11 01:16:15;;;;;;;2.58;2.38;;;24.50;99.40;;;;;;5010156;28;20176;-76
2021/07/11 01:18:44;;;;;;;3.87;2.80;;;24.40;99.30;;;;;;5027112;28;20805;-76
2021/07/11 01:21:14;;;;;;;3.03;2.60;;;24.40;99.20;;;;;;5036984;28;20203;-76
2021/07/11 01:23:57;;;;;;;10.47;3.03;;;24.40;99.70;;;;;;5028441;28;20200;-76
2021/07/11 01:26:27;;;;;;;3.37;2.73;;;24.40;99.60;;;;;;5019578;28;20251;-75
2021/07/11 01:28:56;;;;;;;3.73;2.87;;;24.30;99.60;;;;;;5028883;28;20196;-77
2021/07/11 01:31:25;;;;;;;6.63;3.05;;;24.30;99.70;;;;;;5015758;28;20294;-76
2021/07/11 01:33:53;;;;;;;3.55;3.10;;;24.30;99.90;;;;;;5019870;28;20188;-77
2021/07/11 01:36:21;;;;;;;4.85;2.70;;;24.40;99.90;;;;;;5025777;28;20192;-76
2021/07/11 01:38:52;;;;;;;6.03;2.73;;;24.30;99.80;;;;;;5037893;28;20658;-77
2021/07/11 01:41:21;;;;;;;4.05;2.50;;;24.30;99.90;;;;;;5035389;28;20668;-76
2021/07/11 01:43:55;;;;;;;3.90;2.70;;;24.30;99.90;;;;;;5011139;28;20192;-75
2021/07/11 01:46:24;;;;;;;5.13;3.00;;;24.30;99.90;;;;;;5018852;28;20210;-76
2021/07/11 01:48:52;;;;;;;4.85;3.05;;;24.30;99.90;;;;;;5037771;28;20200;-76
2021/07/11 01:51:23;;;;;;;4.65;3.00;;;24.30;99.90;;;;;;5019272;28;20711;-76
2021/07/11 01:53:53;;;;;;;3.15;2.58;;;24.30;99.90;;;;;;5015355;28;20192;-78
2021/07/11 01:56:20;;;;;;;4.73;2.90;;;24.30;99.90;;;;;;5017253;28;20828;-77
2021/07/11 01:58:47;;;;;;;5.32;3.10;;;24.30;99.90;;;;;;5038505;28;20223;-77
2021/07/11 02:01:16;;;;;;;3.60;3.20;;;24.20;99.90;;;;;;5024274;28;20213;-77
2021/07/11 02:03:43;;;;;;;4.80;3.10;;;24.20;99.90;;;;;;5021835;28;20275;-76
2021/07/11 02:06:13;;;;;;;3.30;2.90;;;24.20;99.90;;;;;;5021443;28;20192;-77
2021/07/11 02:08:42;;;;;;;4.33;2.80;;;24.20;99.90;;;;;;5038627;28;20289;-77
2021/07/11 02:11:13;;;;;;;6.13;2.93;;;24.10;99.90;;;;;;5017597;28;20207;-76
2021/07/11 02:13:52;;;;;;;3.03;2.67;;;24.10;99.90;;;;;;5004806;28;20196;-77
2021/07/11 02:17:02;;;;;;;7.20;2.72;;;24.10;99.80;;;;;;5019498;28;20203;-76
2021/07/11 02:19:37;;;;;;;3.13;2.40;;;24.00;99.40;;;;;;5006527;28;20292;-75
2021/07/11 02:22:09;;;;;;;2.83;2.38;;;24.00;99.10;;;;;;5018544;28;20223;-77
2021/07/11 02:24:42;;;;;;;4.53;2.53;;;24.00;99.00;;;;;;5035416;28;20192;-78
2021/07/11 02:27:10;;;;;;;2.97;2.20;;;24.00;99.00;;;;;;5001438;28;20263;-77
2021/07/11 02:29:45;;;;;;;6.13;2.23;;;24.00;99.00;;;;;;5023128;28;20188;-78
2021/07/11 02:32:15;;;;;;;6.23;2.40;;;23.90;98.70;;;;;;5027434;28;20191;-78
2021/07/11 02:34:45;;;;;;;6.87;2.40;;;24.00;98.80;;;;;;5022528;28;20192;-78
2021/07/11 02:37:17;;;;;;;5.82;2.20;;;23.90;98.80;;;;;;5020787;28;20189;-78
2021/07/11 02:39:49;;;;;;;4.77;2.27;;;23.90;98.70;;;;;;5038229;28;20190;-78
2021/07/11 02:42:20;;;;;;;3.13;2.13;;;23.90;98.60;;;;;;5023491;28;20187;-77
2021/07/11 02:44:54;;;;;;;9.73;2.50;;;23.90;98.20;;;;;;5022252;28;20188;-77
2021/07/11 02:47:30;;;;;;;3.00;1.93;;;23.90;98.60;;;;;;5021483;28;20212;-77
2021/07/11 02:50:04;;;;;;;7.03;2.73;;;23.90;98.40;;;;;;5022692;28;20187;-76
2021/07/11 02:52:31;;;;;;;4.90;2.13;;;24.00;98.50;;;;;;5025143;28;20199;-76
2021/07/11 02:55:24;;;;;;;3.28;2.85;;;24.00;98.70;;;;;;5016819;28;20188;-75
2021/07/11 02:58:02;;;;;;;5.07;2.30;;;24.00;98.60;;;;;;5017222;28;20187;-76
2021/07/11 03:00:29;;;;;;;8.70;2.50;;;24.00;98.90;;;;;;5019350;28;20181;-78
2021/07/11 03:02:57;;;;;;;4.83;2.40;;;24.00;99.00;;;;;;5020380;28;20188;-78
2021/07/11 03:05:25;;;;;;;5.87;2.47;;;24.00;99.30;;;;;;5041483;28;20223;-79
2021/07/11 03:07:52;;;;;;;8.73;2.37;;;24.00;99.50;;;;;;5009162;28;20747;-77
2021/07/11 03:10:19;;;;;;;4.93;2.60;;;24.00;99.50;;;;;;5012178;28;20211;-78
2021/07/11 03:12:50;;;;;;;5.87;2.83;;;24.00;99.70;;;;;;5024604;28;20184;-79
2021/07/11 03:15:19;;;;;;;4.10;2.40;;;24.10;99.60;;;;;;5039961;28;20658;-78
2021/07/11 03:17:48;;;;;;;5.85;2.55;;;24.10;99.80;;;;;;5022920;28;20709;-78
2021/07/11 03:20:15;;;;;;;5.57;2.50;;;24.10;99.90;;;;;;5012312;28;20199;-78
2021/07/11 03:22:42;;;;;;;3.90;2.50;;;24.20;99.80;;;;;;5020527;28;20195;-78
2021/07/11 03:25:12;;;;;;;4.23;2.67;;;24.20;99.90;;;;;;5038931;28;20188;-77
2021/07/11 03:27:40;;;;;;;5.63;2.30;;;24.20;99.90;;;;;;5014016;28;20515;-78
2021/07/11 03:30:14;;;;;;;3.13;2.60;;;24.30;99.90;;;;;;5015795;28;20212;-77
2021/07/11 03:32:59;;;;;;;6.47;2.47;;;24.30;99.90;;;;;;5021217;28;20187;-77
2021/07/11 03:35:40;;;;;;;3.27;2.77;;;24.30;99.90;;;;;;5039406;28;20184;-79
2021/07/11 03:38:14;;;;;;;8.17;2.47;;;24.30;99.90;;;;;;5031418;28;20203;-78
2021/07/11 03:40:45;;;;;;;6.10;2.27;;;24.30;99.90;;;;;;5022730;28;20188;-75
2021/07/11 03:43:15;;;;;;;4.27;2.50;;;24.40;99.90;;;;;;5019911;28;20194;-76
2021/07/11 03:45:46;;;;;;;3.83;2.53;;;24.40;99.90;;;;;;5024086;28;21019;-75
2021/07/11 03:48:18;;;;;;;3.70;2.45;;;24.40;99.90;;;;;;5018815;28;20226;-78
2021/07/11 03:50:56;;;;;;;7.85;2.40;;;24.40;99.90;;;;;;5024822;28;20215;-76
2021/07/11 03:53:33;;;;;;;3.83;2.42;;;24.40;99.90;;;;;;5021411;28;20191;-77
2021/07/11 03:56:03;;;;;;;5.80;2.28;;;24.40;99.90;;;;;;5023146;28;20205;-77
2021/07/11 03:58:37;;;;;;;4.00;2.30;;;24.50;99.90;;;;;;5016973;28;20188;-79
2021/07/11 04:01:05;;;;;;;4.95;2.25;;;24.50;99.90;;;;;;5026190;28;20187;-77
2021/07/11 04:03:36;;;;;;;6.22;2.20;;;24.50;99.90;;;;;;5029360;28;20192;-77
2021/07/11 04:06:05;;;;;;;3.00;2.25;;;24.50;99.90;;;;;;5021877;28;20194;-78
2021/07/11 04:08:35;;;;;;;3.75;1.90;;;24.50;99.90;;;;;;5029030;28;20607;-76
2021/07/11 04:11:01;;;;;;;4.07;2.30;;;24.50;99.90;;;;;;5028370;28;20219;-77
2021/07/11 04:13:28;;;;;;;2.97;2.28;;;24.50;99.90;;;;;;5037035;28;20189;-79
2021/07/11 04:16:03;;;;;;;3.85;2.25;;;24.50;99.90;;;;;;5025221;28;20735;-77
2021/07/11 04:18:36;;;;;;;3.23;2.13;;;24.50;99.90;;;;;;5028600;28;20183;-76
2021/07/11 04:21:03;;;;;;;3.67;2.58;;;24.50;99.90;;;;;;5031664;28;20199;-79
2021/07/11 04:23:34;;;;;;;4.18;2.35;;;24.50;99.90;;;;;;5028057;28;20184;-77
2021/07/11 04:26:04;;;;;;;7.50;2.23;;;24.50;99.90;;;;;;5039153;28;20198;-78
2021/07/11 04:28:34;;;;;;;5.18;2.10;;;24.60;99.90;;;;;;5033987;28;20235;-78
2021/07/11 04:31:03;;;;;;;8.70;1.98;;;24.60;99.90;;;;;;5007483;28;20212;-77
2021/07/11 04:33:32;;;;;;;4.05;2.35;;;24.60;99.90;;;;;;5024566;28;20635;-75
2021/07/11 04:35:59;;;;;;;2.78;2.47;;;24.70;99.90;;;;;;5040880;28;20192;-76
2021/07/11 04:38:26;;;;;;;3.28;2.35;;;24.70;99.90;;;;;;5023280;28;20215;-75
2021/07/11 04:40:53;;;;;;;6.53;2.55;;;24.70;99.90;;;;;;5031427;28;20677;-76
2021/07/11 04:43:19;;;;;;;6.30;2.60;;;24.80;99.90;;;;;;5033595;28;20640;-76
2021/07/11 04:45:47;;;;;;;4.38;2.47;;;24.80;99.90;;;;;;5041731;28;20224;-75
2021/07/11 04:48:15;;;;;;;3.03;2.53;;;24.80;99.90;;;;;;5041172;28;20200;-76
2021/07/11 04:50:47;;;;;;;9.40;2.88;;;24.90;99.90;;;;;;5043632;28;20299;-76
2021/07/11 04:53:15;;;;;;;5.35;2.90;;;24.90;99.90;;;;;;5023779;28;20184;-76
2021/07/11 04:55:45;;;;;;;4.88;2.80;;;24.90;99.90;;;;;;5030431;28;20196;-75
2021/07/11 04:58:14;;;;;;;3.45;2.70;;;24.90;99.90;;;;;;5030536;28;20215;-78
2021/07/11 05:00:42;;;;;;;5.70;2.75;;;25.00;99.90;;;;;;5017285;28;20184;-74
2021/07/11 05:03:08;;;;;;;9.93;3.45;;;25.00;99.90;;;;;;5017994;28;20235;-74
2021/07/11 05:05:35;;;;;;;6.07;2.80;;;25.10;99.90;;;;;;5039081;28;20279;-73
2021/07/11 05:08:05;;;;;;;4.80;2.60;;;25.10;99.90;;;;;;5010277;28;20600;-74
2021/07/11 05:10:32;;;;;;;5.38;2.67;;;25.20;99.90;;;;;;5041563;28;20208;-74
2021/07/11 05:12:58;;;;;;;4.28;2.67;;;25.40;99.90;;;;;;5025846;28;20196;-74
2021/07/11 05:15:25;;;;;;;7.10;2.78;;;25.60;99.90;;;;;;5023436;28;20207;-73
2021/07/11 05:17:51;;;;;;;5.50;2.80;;;25.80;99.90;;;;;;5037242;28;20188;-73
2021/07/11 05:20:18;;;;;;;6.30;3.10;;;25.80;99.90;;;;;;5022501;28;20865;-74
2021/07/11 05:22:44;;;;;;;6.45;2.92;;;25.90;99.90;;;;;;5029152;28;20269;-76
2021/07/11 05:25:11;;;;;;;7.68;3.00;;;26.20;99.70;;;;;;5023349;28;20196;-74
2021/07/11 05:27:37;;;;;;;6.65;3.00;;;26.30;99.60;;;;;;5026529;28;20181;-77
2021/07/11 05:30:05;;;;;;;10.02;2.65;;;26.40;99.20;;;;;;5021835;28;20191;-79
2021/07/11 05:32:31;;;;;;;4.28;2.70;;;26.60;98.60;;;;;;5037045;28;20188;-79
2021/07/11 05:34:57;;;;;;;9.15;3.03;;;26.60;99.00;;;;;;5039372;28;20192;-77
2021/07/11 05:37:24;;;;;;;7.65;3.10;;;26.70;99.00;;;;;;5037608;28;20196;-74
2021/07/11 05:39:50;;;;;;;10.55;3.35;;;26.70;99.20;;;;;;5027153;28;20227;-75
2021/07/11 05:42:16;;;;;;;6.40;2.90;;;26.70;99.60;;;;;;5026784;28;20218;-74
2021/07/11 05:44:43;;;;;;;5.95;3.28;;;26.70;99.30;;;;;;5023490;28;20187;-75
2021/07/11 05:47:11;;;;;;;9.18;3.42;;;26.80;99.30;;;;;;5020220;28;20212;-74
2021/07/11 05:49:38;;;;;;;4.75;3.00;;;27.00;99.30;;;;;;5024003;28;20204;-74
2021/07/11 05:52:05;;;;;;;5.25;3.08;;;27.00;99.30;;;;;;5037596;28;20212;-74
2021/07/11 05:54:32;;;;;;;6.93;3.05;;;27.00;98.80;;;;;;5027284;28;20608;-75
2021/07/11 05:56:58;;;;;;;31.00;4.00;;;27.10;98.50;;;;;;5024855;28;20184;-75
2021/07/11 05:59:24;;;;;;;4.20;2.80;;;27.20;98.50;;;;;;5026930;28;20184;-75
2021/07/11 06:01:51;;;;;;;9.27;2.85;;;27.40;98.10;;;;;;5014462;28;20224;-76
2021/07/11 06:04:19;;;;;;;6.60;3.42;;;27.50;97.80;;;;;;5036545;28;20188;-76
2021/07/11 06:06:45;;;;;;;5.45;3.05;;;27.50;97.70;;;;;;5021391;28;20664;-75
2021/07/11 06:09:11;;;;;;;4.35;2.53;;;27.60;97.70;;;;;;5037918;28;20280;-78
2021/07/11 06:11:39;;;;;;;5.00;2.80;;;27.60;97.50;;;;;;5023285;28;20327;-78
2021/07/11 06:14:07;;;;;;;5.88;2.97;;;27.80;97.30;;;;;;5029112;28;20322;-78
2021/07/11 06:16:34;;;;;;;12.45;2.95;;;28.00;96.50;;;;;;5027515;28;20842;-78
2021/07/11 06:19:01;;;;;;;10.27;3.10;;;28.10;96.40;;;;;;5023287;28;20199;-75
2021/07/11 06:21:27;;;;;;;4.45;2.50;;;28.20;96.40;;;;;;5027425;28;20605;-75
2021/07/11 06:23:54;;;;;;;3.47;2.38;;;28.30;95.70;;;;;;5030799;28;20227;-78
2021/07/11 06:26:21;;;;;;;9.07;3.00;;;28.30;95.90;;;;;;5021537;28;20184;-76
2021/07/11 06:28:47;;;;;;;7.95;2.78;;;28.40;96.00;;;;;;5022498;28;20189;-78
2021/07/11 06:31:14;;;;;;;6.55;2.75;;;28.40;96.20;;;;;;5017697;28;20219;-78
2021/07/11 06:33:40;;;;;;;10.65;2.80;;;28.70;95.90;;;;;;5015608;28;20760;-77
2021/07/11 06:36:07;;;;;;;5.55;2.78;;;28.60;96.30;;;;;;5011489;28;20795;-78
2021/07/11 06:38:33;;;;;;;7.25;2.92;;;28.70;96.50;;;;;;5021891;28;20629;-75
2021/07/11 06:41:00;;;;;;;5.53;2.67;;;28.80;97.10;;;;;;5021392;28;20197;-76
2021/07/11 06:43:26;;;;;;;7.07;2.65;;;28.80;96.50;;;;;;5034493;28;20975;-77
2021/07/11 06:45:53;;;;;;;8.32;3.10;;;28.90;96.40;;;;;;5022071;28;20212;-77
2021/07/11 06:48:19;;;;;;;4.75;2.90;;;28.90;96.80;;;;;;5027533;28;20192;-75
2021/07/11 06:50:46;;;;;;;6.15;2.80;;;29.00;97.10;;;;;;5024421;28;20218;-77
2021/07/11 06:53:13;;;;;;;8.77;2.90;;;29.00;97.20;;;;;;5013603;28;20612;-76
2021/07/11 06:55:41;;;;;;;8.15;2.90;;;29.00;97.40;;;;;;5023783;28;20251;-75
2021/07/11 06:58:07;;;;;;;7.97;2.72;;;29.00;97.10;;;;;;5010837;28;20192;-77
2021/07/11 07:00:34;;;;;;;9.98;3.58;;;29.10;97.40;;;;;;5023748;28;20189;-77
2021/07/11 07:03:01;;;;;;;4.93;2.70;;;29.20;97.20;;;;;;5016838;28;20238;-76
2021/07/11 07:05:28;;;;;;;7.07;2.50;;;29.20;96.80;;;;;;5034940;28;20644;-77
2021/07/11 07:07:55;;;;;;;9.38;2.78;;;29.30;95.40;;;;;;5038735;28;20641;-77
2021/07/11 07:10:23;;;;;;;5.85;2.92;;;29.40;94.20;;;;;;5035985;28;20216;-78
2021/07/11 07:12:50;;;;;;;4.97;2.38;;;29.40;95.20;;;;;;5020719;28;20242;-76
2021/07/11 07:15:17;;;;;;;2.85;2.30;;;29.50;94.10;;;;;;5034851;28;20212;-76
2021/07/11 07:17:44;;;;;;;6.70;2.85;;;29.70;93.60;;;;;;5026453;28;20184;-78
2021/07/11 07:20:13;;;;;;;6.07;2.63;;;29.70;94.40;;;;;;5023958;28;20192;-77
2021/07/11 07:22:41;;;;;;;5.03;2.90;;;29.80;95.90;;;;;;5023365;28;20196;-77
2021/07/11 07:25:12;;;;;;;6.18;2.78;;;29.70;96.60;;;;;;5038329;28;20585;-78
2021/07/11 07:27:39;;;;;;;4.65;2.70;;;29.80;96.70;;;;;;5038730;28;20196;-77
2021/07/11 07:30:08;;;;;;;4.72;2.90;;;29.90;98.10;;;;;;5037809;28;20188;-78
2021/07/11 07:32:34;;;;;;;4.25;2.85;;;29.90;97.20;;;;;;5039575;28;20264;-77
2021/07/11 07:35:01;;;;;;;10.23;3.13;;;30.00;96.50;;;;;;5015276;28;20203;-77
2021/07/11 07:37:27;;;;;;;7.03;3.03;;;30.00;98.40;;;;;;4994120;28;20180;-77
2021/07/11 07:39:54;;;;;;;12.02;3.50;;;30.00;98.90;;;;;;5030577;28;20212;-77
2021/07/11 07:42:21;;;;;;;11.18;3.78;;;30.00;99.90;;;;;;5008300;28;20548;-76
2021/07/11 07:44:48;;;;;;;17.42;3.65;;;30.00;99.80;;;;;;5003108;28;20805;-76
2021/07/11 07:47:14;;;;;;;7.55;3.10;;;30.10;99.90;;;;;;5039056;28;20219;-75
2021/07/11 07:49:41;;;;;;;8.15;2.97;;;30.20;99.90;;;;;;5037508;28;20184;-76
2021/07/11 07:52:07;;;;;;;11.65;3.53;;;30.30;98.00;;;;;;5023133;28;20535;-76
2021/07/11 07:54:34;;;;;;;5.25;3.25;;;30.40;99.90;;;;;;5020406;28;20175;-78
2021/07/11 07:57:02;;;;;;;10.88;3.42;;;30.30;99.90;;;;;;5020407;28;20271;-76
2021/07/11 07:59:29;;;;;;;10.52;3.47;;;30.40;99.90;;;;;;5027565;28;20186;-76
2021/07/11 08:01:56;;;;;;;10.63;3.88;;;30.40;99.90;;;;;;5028116;28;20211;-76
2021/07/11 08:04:22;;;;;;;5.75;3.20;;;30.40;99.90;;;;;;5017628;28;20184;-76
2021/07/11 08:06:49;;;;;;;7.40;3.35;;;30.50;99.90;;;;;;5014722;28;20211;-77
2021/07/11 08:09:16;;;;;;;9.75;3.63;;;30.40;99.90;;;;;;5025529;28;20242;-75
2021/07/11 08:11:45;;;;;;;7.32;2.70;;;30.70;99.60;;;;;;5022155;28;20258;-76
2021/07/11 08:14:12;;;;;;;3.92;2.78;;;30.60;99.90;;;;;;5032249;28;20684;-76
2021/07/11 08:16:38;;;;;;;7.90;3.38;;;30.70;99.90;;;;;;5024902;28;20185;-76
2021/07/11 08:19:05;;;;;;;7.47;3.33;;;30.70;99.90;;;;;;5024195;28;20195;-76
2021/07/11 08:21:32;;;;;;;14.50;3.75;;;30.80;99.90;;;;;;5022524;28;20280;-76
2021/07/11 08:23:58;;;;;;;11.18;2.90;;;30.70;99.90;;;;;;5019295;28;20197;-76
2021/07/11 08:26:25;;;;;;;13.18;3.72;;;30.90;98.80;;;;;;5035468;28;20184;-78
2021/07/11 08:28:51;;;;;;;10.75;3.40;;;30.80;99.90;;;;;;4993929;28;20192;-76
2021/07/11 08:31:19;;;;;;;8.18;3.15;;;31.10;99.90;;;;;;5022393;28;20212;-75
2021/07/11 08:33:46;;;;;;;7.40;3.15;;;31.10;99.90;;;;;;5022203;28;20188;-77
2021/07/11 08:36:12;;;;;;;8.05;3.05;;;31.00;99.90;;;;;;5016160;28;20200;-78
2021/07/11 08:38:39;;;;;;;11.02;3.25;;;31.00;99.90;;;;;;5009716;28;20188;-77
2021/07/11 08:41:05;;;;;;;6.55;2.97;;;31.10;99.90;;;;;;5038729;28;20196;-77
2021/07/11 08:43:36;;;;;;;7.53;2.95;;;31.20;99.50;;;;;;5020387;28;20192;-75
2021/07/11 08:46:04;;;;;;;6.53;2.97;;;31.10;99.90;;;;;;5029853;28;20204;-75
2021/07/11 08:48:30;;;;;;;7.80;2.90;;;31.30;99.30;;;;;;5022011;28;20319;-75
2021/07/11 08:51:02;;;;;;;6.55;3.20;;;31.30;99.60;;;;;;5028217;28;20315;-75
2021/07/11 08:53:33;;;;;;;5.35;2.97;;;31.50;99.90;;;;;;5019724;28;20742;-77
2021/07/11 08:56:14;;;;;;;5.82;2.17;;;31.50;99.90;;;;;;5009960;28;20293;-75
2021/07/11 08:58:51;;;;;;;6.32;3.10;;;31.30;95.80;;;;;;5039865;28;20189;-77
2021/07/11 09:04:13;;;;;;;6.57;2.30;;;31.50;96.00;;;;;;5023128;28;20188;-77
2021/07/11 09:06:54;;;;;;;6.20;2.60;;;31.50;94.90;;;;;;5007102;28;20246;-75
2021/07/11 09:09:37;;;;;;;5.63;2.40;;;31.70;96.50;;;;;;5021494;28;20226;-74
2021/07/11 09:12:09;;;;;;;8.95;2.63;;;31.60;94.70;;;;;;5043712;28;20723;-77
2021/07/11 09:14:42;;;;;;;7.40;2.45;;;31.80;96.40;;;;;;5021733;28;20246;-77
2021/07/11 09:17:11;;;;;;;7.50;2.40;;;31.90;95.50;;;;;;5023878;28;20281;-77
2021/07/11 09:19:48;;;;;;;7.82;2.83;;;32.00;95.90;;;;;;5022539;28;20215;-75
2021/07/11 09:22:17;;;;;;;5.90;2.47;;;32.00;95.90;;;;;;5033492;28;20193;-74
2021/07/11 09:24:51;;;;;;;11.90;2.70;;;32.10;95.80;;;;;;5039252;28;20716;-77
2021/07/11 09:27:20;;;;;;;7.40;2.85;;;32.10;93.40;;;;;;5020116;28;20510;-77
2021/07/11 09:29:48;;;;;;;9.05;2.90;;;32.10;95.90;;;;;;5025480;28;20220;-77
2021/07/11 09:32:34;;;;;;;10.05;2.80;;;32.20;94.80;;;;;;5023419;28;20319;-77
2021/07/11 09:35:21;;;;;;;6.78;2.40;;;32.40;94.10;;;;;;5039516;28;20176;-77
2021/07/11 09:38:00;;;;;;;6.95;2.67;;;32.30;94.50;;;;;;5014789;28;20215;-76
2021/07/11 09:40:28;;;;;;;9.02;3.05;;;32.20;94.80;;;;;;5020027;28;20275;-76
2021/07/11 09:42:57;;;;;;;5.15;2.80;;;32.20;96.30;;;;;;5023178;28;20807;-77
2021/07/11 09:45:33;;;;;;;5.45;2.95;;;32.30;94.80;;;;;;5025615;28;20274;-76
2021/07/11 09:48:10;;;;;;;7.80;2.85;;;32.30;94.20;;;;;;5022058;28;20187;-76
2021/07/11 09:50:37;;;;;;;5.22;2.55;;;32.50;93.70;;;;;;5036310;28;20724;-77
2021/07/11 09:53:06;;;;;;;14.30;3.53;;;32.60;94.90;;;;;;5031122;28;20188;-76
2021/07/11 09:55:36;;;;;;;5.43;2.53;;;32.60;96.60;;;;;;5021209;28;20196;-76
2021/07/11 09:58:11;;;;;;;7.30;2.92;;;32.60;94.70;;;;;;5025749;28;20192;-76
2021/07/11 10:00:41;;;;;;;14.25;3.65;;;32.60;96.40;;;;;;5023390;28;20690;-76
2021/07/11 10:03:15;;;;;;;10.52;3.88;;;32.70;99.20;;;;;;5019969;28;20194;-78
2021/07/11 10:05:43;;;;;;;11.65;3.88;;;32.60;99.90;;;;;;5015360;28;21014;-78
2021/07/11 10:08:10;;;;;;;13.32;3.78;;;32.50;99.90;;;;;;5026436;28;20187;-77
2021/07/11 10:10:41;;;;;;;9.15;3.80;;;32.80;99.90;;;;;;5034151;28;20219;-76
2021/07/11 10:13:09;;;;;;;7.90;4.10;;;32.90;99.90;;;;;;5019650;28;20742;-76
2021/07/11 10:15:39;;;;;;;10.45;4.30;;;32.90;99.90;;;;;;5018862;28;20176;-77
2021/07/11 10:18:14;;;;;;;8.20;4.13;;;33.10;99.90;;;;;;5022331;28;20230;-77
2021/07/11 10:20:47;;;;;;;9.55;4.32;;;33.00;99.90;;;;;;5023940;28;20196;-76
2021/07/11 10:23:43;;;;;;;7.40;3.55;;;33.10;99.90;;;;;;5025602;28;21072;-75
2021/07/11 10:26:14;;;;;;;8.95;3.85;;;33.30;99.90;;;;;;5017974;28;20246;-73
2021/07/11 10:28:47;;;;;;;9.57;3.50;;;33.30;99.90;;;;;;5024173;28;20203;-73
2021/07/11 10:31:28;;;;;;;10.05;4.63;;;33.40;99.90;;;;;;5023511;28;20217;-74
2021/07/11 10:33:57;;;;;;;12.52;4.07;;;33.40;99.90;;;;;;5022255;28;20670;-75
2021/07/11 10:36:39;;;;;;;12.55;4.57;;;33.50;99.90;;;;;;5011626;28;20188;-75
2021/07/11 10:39:14;;;;;;;10.32;4.45;;;33.50;99.90;;;;;;5018318;28;20188;-75
2021/07/11 10:42:09;;;;;;;8.80;3.67;;;33.60;99.90;;;;;;5003612;28;20683;-76
2021/07/11 10:44:36;;;;;;;9.30;4.22;;;33.70;99.90;;;;;;5019820;28;20200;-75
2021/07/11 10:47:06;;;;;;;13.48;4.13;;;33.70;99.90;;;;;;5038409;28;20204;-75
2021/07/11 10:49:50;;;;;;;13.23;4.30;;;33.80;99.90;;;;;;5034587;28;20836;-75
2021/07/11 10:52:27;;;;;;;13.07;4.45;;;33.80;99.90;;;;;;5026373;28;20226;-75
2021/07/11 10:55:15;;;;;;;14.77;4.10;;;33.60;99.90;;;;;;5021078;28;20529;-75
2021/07/11 10:57:41;;;;;;;16.58;4.80;;;33.50;99.90;;;;;;5037644;28;20202;-75
2021/07/11 11:00:28;;;;;;;15.90;4.57;;;33.80;99.90;;;;;;5042993;28;20200;-74
2021/07/11 11:02:55;;;;;;;12.32;4.53;;;33.60;99.90;;;;;;5042781;28;20242;-75
2021/07/11 11:05:26;;;;;;;11.43;4.65;;;33.70;99.90;;;;;;5040678;28;20719;-74
2021/07/11 11:07:57;;;;;;;12.10;4.57;;;33.90;99.90;;;;;;5022751;28;20206;-74
2021/07/11 11:10:43;;;;;;;18.00;4.35;;;33.80;99.90;;;;;;5013798;28;20644;-75
2021/07/11 11:13:20;;;;;;;8.68;4.28;;;33.60;99.90;;;;;;5022727;28;20294;-74
2021/07/11 11:15:59;;;;;;;15.48;4.00;;;33.60;99.90;;;;;;5021580;28;20203;-74
2021/07/11 11:18:31;;;;;;;10.73;4.28;;;33.70;99.90;;;;;;5026718;28;20229;-76
2021/07/11 11:21:08;;;;;;;10.75;4.22;;;33.60;99.90;;;;;;5021533;28;20211;-75
2021/07/11 11:23:42;;;;;;;10.43;3.97;;;33.20;99.90;;;;;;5018203;28;20195;-74
2021/07/11 11:26:20;;;;;;;9.75;3.90;;;33.40;99.90;;;;;;5026142;28;20239;-77
2021/07/11 11:28:47;;;;;;;12.45;3.80;;;33.60;99.90;;;;;;5019594;28;20298;-74
2021/07/11 11:31:20;;;;;;;10.75;3.88;;;33.40;99.90;;;;;;5038788;28;20251;-75
2021/07/11 11:34:04;;;;;;;13.50;3.70;;;33.50;99.90;;;;;;5023786;28;20830;-74
2021/07/11 11:36:41;;;;;;;14.68;3.90;;;33.40;99.90;;;;;;5037328;28;20267;-76
2021/07/11 11:39:24;;;;;;;11.45;3.85;;;33.30;99.90;;;;;;5019990;28;20191;-75
2021/07/11 11:41:52;;;;;;;14.07;4.38;;;33.40;99.90;;;;;;5014213;28;20541;-75
2021/07/11 11:44:22;;;;;;;13.38;4.15;;;33.40;99.90;;;;;;5021509;28;20287;-74
2021/07/11 11:46:52;;;;;;;15.20;3.90;;;33.60;99.90;;;;;;5024245;28;20211;-76
2021/07/11 11:49:31;;;;;;;10.40;4.10;;;33.70;99.90;;;;;;5020391;28;20626;-75
2021/07/11 11:52:03;;;;;;;10.52;3.70;;;33.50;99.90;;;;;;5017361;28;20212;-75
2021/07/11 11:54:30;;;;;;;13.35;4.00;;;33.60;99.90;;;;;;5021840;28;20206;-76
2021/07/11 11:56:58;;;;;;;14.98;3.58;;;33.60;99.90;;;;;;5025370;28;20200;-76
2021/07/11 11:59:26;;;;;;;11.38;3.58;;;33.60;99.90;;;;;;5022601;28;20188;-75
2021/07/11 12:02:06;;;;;;;10.32;3.53;;;33.70;99.90;;;;;;5020172;28;20185;-76
2021/07/11 12:04:34;;;;;;;10.18;3.50;;;33.60;99.90;;;;;;5025444;28;20191;-75
2021/07/11 12:07:05;;;;;;;19.25;4.35;;;33.60;99.90;;;;;;5037457;28;20184;-76
2021/07/11 12:09:34;;;;;;;7.93;3.42;;;33.30;99.90;;;;;;5028046;28;20672;-77
2021/07/11 12:12:10;;;;;;;12.68;3.58;;;33.20;99.90;;;;;;5002220;28;20340;-75
2021/07/11 12:14:40;;;;;;;11.43;3.40;;;33.10;99.90;;;;;;5016304;28;20691;-75
2021/07/11 12:17:13;;;;;;;12.35;3.53;;;33.30;99.90;;;;;;5022941;28;20393;-76
2021/07/11 12:19:55;;;;;;;12.63;3.60;;;33.40;99.90;;;;;;5023771;28;20618;-75
2021/07/11 12:22:30;;;;;;;11.73;3.40;;;33.60;99.40;;;;;;5025987;28;20195;-76
2021/07/11 12:25:30;;;;;;;10.80;3.90;;;33.60;99.60;;;;;;5039596;28;20196;-76
2021/07/11 12:28:02;;;;;;;14.20;3.83;;;33.70;99.30;;;;;;5025895;28;20192;-76
2021/07/11 12:30:46;;;;;;;7.60;3.30;;;33.60;98.60;;;;;;5038093;28;20250;-76
2021/07/11 12:33:26;;;;;;;7.68;3.38;;;33.50;98.90;;;;;;5022055;28;20180;-76
2021/07/11 12:35:58;;;;;;;11.73;4.00;;;33.50;98.60;;;;;;5021259;28;20769;-75
2021/07/11 12:38:38;;;;;;;8.55;3.25;;;33.60;98.70;;;;;;5022798;28;20222;-75
2021/07/11 12:43:55;;;;;;;9.27;3.35;;;33.70;97.90;;;;;;5068527;27;20570;-73
2021/07/11 12:46:27;;;;;;;7.30;3.28;;;33.70;98.30;;;;;;5056312;28;20266;-75
2021/07/11 12:49:09;;;;;;;10.45;3.67;;;33.40;98.70;;;;;;5052925;28;20195;-75
2021/07/11 12:51:48;;;;;;;10.45;3.58;;;33.60;98.50;;;;;;5055553;28;20190;-71
2021/07/11 12:54:22;;;;;;;10.07;3.33;;;33.50;98.40;;;;;;5054456;28;20186;-71
2021/07/11 12:57:02;;;;;;;8.75;3.28;;;33.30;98.00;;;;;;5038302;28;20222;-71
2021/07/11 12:59:45;;;;;;;10.32;3.42;;;33.00;98.70;;;;;;5056118;28;20179;-73
2021/07/11 13:02:29;;;;;;;8.63;3.60;;;32.90;98.30;;;;;;5039189;28;20345;-75
2021/07/11 13:05:09;;;;;;;7.95;3.30;;;33.40;97.80;;;;;;5037431;28;20187;-72
2021/07/11 13:07:36;;;;;;;12.15;3.72;;;33.60;97.40;;;;;;5041538;28;20190;-72
2021/07/11 13:10:07;;;;;;;10.45;3.38;;;33.40;96.80;;;;;;5058540;28;20183;-72